Terminal Aerodrome Forecast
Issued by NWS

Home | Current Version | Previous Version | Text Only | Print | Product List | Glossary Off
Versions: 1 2 3 4 5 6 7 8 9 10 11 12 13 14 15 16 17 18 19 20

000
FTUS42 KMHX 191621 AAA
TAFPGV
TAF AMD
KPGV 191621Z 1916/2012 VRB03KT P6SM VCSH BKN004 OVC015
     FM192000 20005KT P6SM SCT025 BKN040
     FM200200 VRB04KT 2SM BR OVC008
     FM200600 VRB03KT 3/4SM BR OVC004
      AMD LTD TO CLD VIS AND WIND=

USA.gov is the U.S. government's official web portal to all federal, state and local government web resources and services.